Time;durP1;ratioP1;P1;durP2;ratioP2;P2;SDS_P1;SDS_P2;PMS_P1;PMS_P2;Temp;Humidity;BMP_temperature;BMP_pressure;BME280_temperature;BME280_humidity;BME280_pressure;Samples;Min_cycle;Max_cycle;Signal;HPM_P1;HPM_P2
2021/12/21 00:00:21;;;;;;;6.13;4.97;;;;;;;-2.47;100.00;101781.56;5070884;28;20171;-82
2021/12/21 00:02:49;;;;;;;6.07;4.87;;;;;;;-2.60;100.00;101784.13;5071013;28;20205;-82
2021/12/21 00:05:19;;;;;;;6.10;5.53;;;;;;;-2.75;100.00;101780.66;5070816;28;20621;-81
2021/12/21 00:07:47;;;;;;;5.30;4.77;;;;;;;-2.45;100.00;101776.88;5071132;28;20412;-82
2021/12/21 00:10:13;;;;;;;8.07;5.67;;;;;;;-2.26;100.00;101780.72;5070831;28;20429;-82
2021/12/21 00:12:49;;;;;;;4.13;3.47;;;;;;;-2.33;100.00;101776.31;5070720;28;20480;-80
2021/12/21 00:15:23;;;;;;;5.47;4.97;;;;;;;-2.42;100.00;101776.47;5070719;28;20726;-81
2021/12/21 00:23:18;;;;;;;6.43;5.37;;;;;;;-2.26;100.00;101778.03;5070955;28;20712;-80
2021/12/21 00:25:36;;;;;;;5.90;5.30;;;;;;;-2.27;100.00;101772.88;5070373;28;20460;-82
2021/12/21 00:28:02;;;;;;;6.80;4.83;;;;;;;-2.27;100.00;101772.88;5070653;28;20909;-81
2021/12/21 00:30:28;;;;;;;6.17;5.30;;;;;;;-2.34;100.00;101767.47;5070494;28;20174;-82
2021/12/21 00:32:53;;;;;;;5.83;5.20;;;;;;;-2.56;100.00;101760.50;5070573;28;21049;-81
2021/12/21 00:35:19;;;;;;;10.80;6.13;;;;;;;-2.76;100.00;101746.94;5070133;28;20271;-82
2021/12/21 00:37:46;;;;;;;7.60;6.40;;;;;;;-2.79;100.00;101758.00;5070503;28;20174;-81
2021/12/21 00:40:12;;;;;;;7.57;6.03;;;;;;;-3.05;100.00;101755.88;5070457;28;20245;-81
2021/12/21 00:42:38;;;;;;;7.63;6.93;;;;;;;-3.15;100.00;101750.03;5070430;28;20417;-82
2021/12/21 00:45:04;;;;;;;10.23;7.13;;;;;;;-3.32;100.00;101757.47;5070226;28;20174;-82
2021/12/21 00:47:33;;;;;;;6.47;5.87;;;;;;;-3.07;100.00;101766.78;5070333;28;20170;-82
2021/12/21 00:50:01;;;;;;;7.13;6.47;;;;;;;-2.78;100.00;101768.50;5065533;28;20520;-81
2021/12/21 00:52:26;;;;;;;7.13;6.43;;;;;;;-2.61;100.00;101769.09;5070089;28;20494;-82
2021/12/21 00:54:52;;;;;;;7.17;6.47;;;;;;;-2.55;100.00;101770.19;5069886;28;20868;-82
2021/12/21 00:57:17;;;;;;;18.60;7.77;;;;;;;-2.61;100.00;101765.56;5070125;28;20209;-82
2021/12/21 00:59:43;;;;;;;8.50;7.53;;;;;;;-2.67;100.00;101764.50;5070216;28;20177;-81
2021/12/21 01:02:10;;;;;;;13.67;8.63;;;;;;;-2.53;100.00;101766.28;5070318;28;20552;-83
2021/12/21 01:04:46;;;;;;;9.90;7.53;;;;;;;-2.48;100.00;101768.38;5068848;28;20198;-81
2021/12/21 01:12:29;;;;;;;9.07;6.83;;;;;;;-2.60;100.00;101757.38;5070081;28;20908;-82
2021/12/21 01:17:36;;;;;;;12.03;6.60;;;;;;;-2.51;100.00;101756.22;5070274;28;20466;-82
2021/12/21 01:20:24;;;;;;;8.23;7.43;;;;;;;-2.49;100.00;101756.03;5070643;28;20754;-81
2021/12/21 01:23:22;;;;;;;8.87;7.03;;;;;;;-2.30;100.00;101768.75;5070112;28;20995;-82
2021/12/21 01:28:15;;;;;;;8.00;5.93;;;;;;;-2.19;100.00;101770.06;5069936;28;20931;-81
2021/12/21 01:33:56;;;;;;;9.33;6.80;;;;;;;-2.55;100.00;101748.78;5040766;28;20912;-82
2021/12/21 01:36:35;;;;;;;10.33;5.80;;;;;;;-2.42;100.00;101752.41;5069930;28;20464;-83
2021/12/21 01:41:40;;;;;;;6.90;6.30;;;;;;;-2.75;100.00;101732.53;5070001;28;20397;-82
2021/12/21 01:49:49;;;;;;;7.13;6.13;;;;;;;-3.29;100.00;101725.00;5069995;28;20431;-82
2021/12/21 01:52:21;;;;;;;5.77;5.27;;;;;;;-3.39;100.00;101725.31;5069892;28;20405;-81
2021/12/21 01:54:48;;;;;;;10.50;5.20;;;;;;;-3.68;100.00;101717.34;5069717;28;20460;-81
2021/12/21 01:57:14;;;;;;;5.70;5.03;;;;;;;-3.70;100.00;101717.53;5069718;28;20421;-81
2021/12/21 01:59:41;;;;;;;7.97;6.03;;;;;;;-3.31;100.00;101727.06;5069779;28;20419;-82
2021/12/21 02:02:09;;;;;;;6.83;5.20;;;;;;;-3.12;100.00;101731.78;5071704;28;20174;-82
2021/12/21 02:04:36;;;;;;;9.37;5.87;;;;;;;-2.96;100.00;101724.53;5073240;28;20432;-82
2021/12/21 02:07:02;;;;;;;9.40;5.63;;;;;;;-2.80;100.00;101733.13;5072940;28;20425;-83
2021/12/21 02:09:37;;;;;;;6.43;5.83;;;;;;;-2.69;100.00;101734.47;5073299;28;20433;-82
2021/12/21 02:12:08;;;;;;;5.23;4.73;;;;;;;-2.60;100.00;101741.34;5073383;28;20408;-82
2021/12/21 02:14:34;;;;;;;6.17;5.63;;;;;;;-2.55;100.00;101730.06;5072418;28;20463;-82
2021/12/21 02:20:17;;;;;;;6.03;5.53;;;;;;;-2.71;100.00;101721.28;5073156;28;20785;-81
2021/12/21 02:22:49;;;;;;;5.83;5.33;;;;;;;-2.94;100.00;101717.16;5073131;28;20755;-82
2021/12/21 02:28:12;;;;;;;6.73;6.13;;;;;;;-2.71;100.00;101720.47;5072996;28;20413;-82
2021/12/21 02:30:43;;;;;;;6.37;5.60;;;;;;;-2.50;100.00;101725.75;5072872;28;20413;-80
2021/12/21 02:33:09;;;;;;;5.20;4.70;;;;;;;-2.60;100.00;101722.63;5072821;28;20412;-80
2021/12/21 02:35:34;;;;;;;5.40;4.20;;;;;;;-2.66;100.00;101718.03;5072596;28;20460;-81
2021/12/21 02:37:59;;;;;;;6.30;5.70;;;;;;;-2.59;100.00;101720.75;5072774;28;20209;-80
2021/12/21 02:40:25;;;;;;;5.77;5.13;;;;;;;-2.61;100.00;101714.75;5072689;28;20174;-80
2021/12/21 02:42:51;;;;;;;6.30;4.33;;;;;;;-2.64;100.00;101707.13;5072721;28;20167;-81
2021/12/21 02:45:16;;;;;;;5.30;4.80;;;;;;;-2.75;100.00;101709.31;5072912;28;20631;-80
2021/12/21 02:47:41;;;;;;;4.80;4.37;;;;;;;-2.95;100.00;101697.59;5072616;28;20171;-81
2021/12/21 02:50:08;;;;;;;5.13;4.73;;;;;;;-3.07;100.00;101691.94;5072809;28;20177;-79
2021/12/21 02:52:36;;;;;;;4.47;4.13;;;;;;;-3.27;100.00;101687.41;5072741;28;20697;-80
2021/12/21 02:55:05;;;;;;;7.60;3.93;;;;;;;-3.34;100.00;101690.00;5072256;28;20464;-81
2021/12/21 02:57:31;;;;;;;4.90;4.40;;;;;;;-3.37;100.00;101695.72;5072215;28;20417;-81
2021/12/21 02:59:56;;;;;;;7.53;5.70;;;;;;;-3.37;100.00;101688.53;5072237;28;20951;-81
2021/12/21 03:02:22;;;;;;;4.87;4.47;;;;;;;-3.32;100.00;101699.50;5072376;28;20175;-82
2021/12/21 03:04:49;;;;;;;6.50;5.10;;;;;;;-3.37;100.00;101693.88;5072148;28;20171;-82
2021/12/21 03:07:50;;;;;;;6.07;4.10;;;;;;;-3.26;100.00;101705.94;5072269;28;20166;-81
2021/12/21 03:10:11;;;;;;;8.87;4.53;;;;;;;-3.47;100.00;101705.88;5072017;28;20468;-81
2021/12/21 03:15:15;;;;;;;5.00;4.60;;;;;;;-3.52;100.00;101702.94;5071724;28;20460;-82
2021/12/21 03:17:40;;;;;;;9.70;4.87;;;;;;;-3.31;100.00;101716.38;5071802;28;20432;-81
2021/12/21 03:20:06;;;;;;;6.73;4.47;;;;;;;-3.23;100.00;101710.88;5072592;28;20261;-81
2021/12/21 03:22:32;;;;;;;7.27;4.63;;;;;;;-3.31;100.00;101703.00;5072063;28;20170;-82
2021/12/21 03:24:57;;;;;;;3.43;3.13;;;;;;;-3.44;100.00;101700.19;5071793;28;20559;-80
2021/12/21 03:27:22;;;;;;;4.37;3.97;;;;;;;-3.57;100.00;101694.69;5071879;28;20190;-80
2021/12/21 03:29:48;;;;;;;4.23;3.87;;;;;;;-3.63;100.00;101694.41;5071903;28;20182;-79
2021/12/21 03:32:13;;;;;;;3.27;2.97;;;;;;;-3.53;100.00;101699.47;5071855;28;20170;-81
2021/12/21 03:34:38;;;;;;;3.57;3.27;;;;;;;-3.52;100.00;101701.09;5071776;28;20205;-79
2021/12/21 03:37:10;;;;;;;4.13;3.83;;;;;;;-3.47;100.00;101703.22;5071516;28;20332;-81
2021/12/21 03:39:36;;;;;;;5.83;5.33;;;;;;;-3.42;100.00;101703.50;5070617;28;20505;-80
2021/12/21 03:42:01;;;;;;;7.33;4.63;;;;;;;-3.37;100.00;101701.06;5071878;28;20420;-80
2021/12/21 03:44:27;;;;;;;7.27;4.07;;;;;;;-3.47;100.00;101695.19;5071703;28;20174;-80
2021/12/21 03:46:55;;;;;;;5.20;4.80;;;;;;;-3.45;100.00;101703.88;5071469;28;20236;-80
2021/12/21 03:52:05;;;;;;;5.40;4.90;;;;;;;-3.70;100.00;101690.84;5071671;28;20436;-80
2021/12/21 03:54:31;;;;;;;5.80;5.30;;;;;;;-3.78;100.00;101680.25;5071394;28;20452;-79
2021/12/21 03:56:57;;;;;;;4.33;3.97;;;;;;;-3.65;100.00;101687.59;5071227;28;20926;-81
2021/12/21 03:59:22;;;;;;;7.37;5.63;;;;;;;-3.92;100.00;101670.41;5071476;28;20170;-81
2021/12/21 04:01:49;;;;;;;6.30;5.70;;;;;;;-4.15;100.00;101662.53;5071484;28;20170;-80
2021/12/21 04:04:19;;;;;;;6.73;5.20;;;;;;;-4.17;100.00;101667.22;5071294;28;20555;-81
2021/12/21 04:06:45;;;;;;;7.07;6.37;;;;;;;-3.89;100.00;101675.41;5071197;28;20417;-80
2021/12/21 04:09:10;;;;;;;6.47;5.87;;;;;;;-3.93;100.00;101671.44;5071987;28;20923;-81
2021/12/21 04:11:36;;;;;;;4.80;4.43;;;;;;;-3.96;100.00;101680.63;5080410;28;20420;-81
2021/12/21 04:14:01;;;;;;;6.10;5.50;;;;;;;-4.05;100.00;101676.44;5072879;28;20575;-80
2021/12/21 04:16:28;;;;;;;6.53;4.70;;;;;;;-4.35;100.00;101664.09;5071541;28;20608;-81
2021/12/21 04:18:53;;;;;;;5.50;5.07;;;;;;;-4.37;100.00;101672.28;5071500;28;20173;-81
2021/12/21 04:21:19;;;;;;;7.23;5.23;;;;;;;-4.36;100.00;101673.09;5071311;28;20413;-81
2021/12/21 04:23:44;;;;;;;9.13;7.53;;;;;;;-4.55;100.00;101675.28;5071017;28;20253;-82
2021/12/21 04:26:11;;;;;;;10.83;5.13;;;;;;;-4.26;100.00;101682.50;5070793;28;20176;-80
2021/12/21 04:28:38;;;;;;;5.07;4.73;;;;;;;-3.89;100.00;101686.09;5071012;28;20174;-81
2021/12/21 04:31:04;;;;;;;5.03;4.63;;;;;;;-3.68;100.00;101687.97;5071210;28;20426;-82
2021/12/21 04:33:31;;;;;;;7.20;5.53;;;;;;;-3.50;100.00;101700.91;5070798;28;20405;-81
2021/12/21 04:35:57;;;;;;;8.67;5.17;;;;;;;-3.47;100.00;101700.53;5070348;28;20460;-80
2021/12/21 04:38:27;;;;;;;8.53;6.50;;;;;;;-3.48;100.00;101696.22;5070515;28;20519;-81
2021/12/21 04:41:01;;;;;;;4.67;4.27;;;;;;;-3.53;100.00;101694.13;5070929;28;20896;-80
2021/12/21 04:43:26;;;;;;;5.93;5.27;;;;;;;-3.56;100.00;101697.16;5069123;28;20498;-79
2021/12/21 04:45:52;;;;;;;5.97;5.47;;;;;;;-3.47;100.00;101692.53;5070615;28;20428;-81
2021/12/21 04:48:17;;;;;;;5.33;4.57;;;;;;;-3.67;100.00;101679.78;5070407;28;20532;-80
2021/12/21 04:50:44;;;;;;;5.23;4.80;;;;;;;-3.84;100.00;101681.00;5070484;28;20183;-80
2021/12/21 04:53:09;;;;;;;8.37;4.53;;;;;;;-3.89;100.00;101678.06;5070364;28;20552;-80
2021/12/21 04:55:34;;;;;;;3.90;3.53;;;;;;;-3.82;100.00;101673.63;5070126;28;20460;-83
2021/12/21 04:58:00;;;;;;;3.43;3.20;;;;;;;-3.93;100.00;101674.09;5070278;28;20257;-80
2021/12/21 05:00:26;;;;;;;5.90;4.73;;;;;;;-4.11;100.00;101671.00;5070103;28;20266;-80
2021/12/21 05:02:51;;;;;;;5.77;5.20;;;;;;;-4.15;100.00;101664.38;5070341;28;20262;-82
2021/12/21 05:05:17;;;;;;;4.93;4.43;;;;;;;-4.11;100.00;101673.66;5070176;28;20179;-81
2021/12/21 05:07:47;;;;;;;14.70;3.83;;;;;;;-4.08;100.00;101670.63;5069979;28;20701;-80
2021/12/21 05:10:13;;;;;;;6.03;5.57;;;;;;;-4.04;100.00;101674.59;5070098;28;20178;-79
2021/12/21 05:12:38;;;;;;;7.20;4.03;;;;;;;-4.05;100.00;101678.25;5070083;28;20448;-79
2021/12/21 05:15:06;;;;;;;10.47;3.83;;;;;;;-4.02;100.00;101681.41;5069690;28;20496;-80
2021/12/21 05:17:31;;;;;;;4.40;3.97;;;;;;;-3.98;100.00;101677.34;5070044;28;20178;-81
2021/12/21 05:19:56;;;;;;;8.53;4.30;;;;;;;-3.97;100.00;101678.16;5070294;28;20417;-81
2021/12/21 05:22:23;;;;;;;4.17;3.70;;;;;;;-3.99;100.00;101678.34;5070249;28;20202;-79
2021/12/21 05:24:48;;;;;;;7.17;6.57;;;;;;;-4.02;100.00;101678.72;5069936;28;20182;-80
2021/12/21 05:27:14;;;;;;;3.97;3.67;;;;;;;-3.97;100.00;101675.50;5070045;28;20423;-80
2021/12/21 05:29:40;;;;;;;5.80;4.73;;;;;;;-3.91;100.00;101680.06;5070108;28;20178;-79
2021/12/21 05:32:06;;;;;;;5.90;4.53;;;;;;;-3.84;100.00;101686.34;5070034;28;20205;-82
2021/12/21 05:34:32;;;;;;;6.87;5.07;;;;;;;-3.93;100.00;101679.44;5069866;28;20167;-78
2021/12/21 05:36:58;;;;;;;5.40;4.87;;;;;;;-4.00;100.00;101681.22;5072777;28;20952;-80
2021/12/21 05:39:27;;;;;;;4.83;4.43;;;;;;;-3.95;100.00;101684.97;5073834;28;20179;-80
2021/12/21 05:41:55;;;;;;;5.37;4.87;;;;;;;-4.21;100.00;101677.41;5074241;28;20634;-80
2021/12/21 05:44:25;;;;;;;5.17;4.73;;;;;;;-4.21;100.00;101681.94;5073740;28;20782;-80
2021/12/21 05:46:53;;;;;;;4.40;4.03;;;;;;;-4.00;100.00;101689.22;5073670;28;20417;-80
2021/12/21 05:49:18;;;;;;;4.77;3.90;;;;;;;-3.90;100.00;101690.59;5073650;28;20447;-80
2021/12/21 05:51:45;;;;;;;4.63;4.17;;;;;;;-3.75;100.00;101692.41;5074239;28;20900;-79
2021/12/21 05:54:15;;;;;;;6.90;4.57;;;;;;;-3.72;100.00;101700.88;5073614;28;20166;-82
2021/12/21 05:56:41;;;;;;;6.13;4.57;;;;;;;-3.79;100.00;101696.47;5073154;28;20436;-82
2021/12/21 05:59:06;;;;;;;5.67;5.17;;;;;;;-3.95;100.00;101695.66;5073527;28;20424;-83
2021/12/21 06:01:33;;;;;;;10.83;5.17;;;;;;;-4.04;100.00;101686.09;5073547;28;20197;-82
2021/12/21 06:04:00;;;;;;;16.70;5.40;;;;;;;-3.98;100.00;101695.19;5073248;28;20175;-82
2021/12/21 06:06:26;;;;;;;4.27;3.97;;;;;;;-3.91;100.00;101698.75;5073097;28;20783;-82
2021/12/21 06:08:53;;;;;;;7.07;4.93;;;;;;;-3.97;100.00;101694.19;5072956;28;20435;-81
2021/12/21 06:11:21;;;;;;;6.33;4.67;;;;;;;-4.02;100.00;101688.56;5073546;28;20173;-82
2021/12/21 06:27:10;;;;;;;4.13;3.57;;;;;;;-3.81;100.00;101703.81;5073311;28;20455;-76
2021/12/21 06:29:35;;;;;;;6.77;5.90;;;;;;;-3.74;100.00;101699.41;5073455;28;20445;-75
2021/12/21 06:32:01;;;;;;;4.77;4.13;;;;;;;-3.87;100.00;101699.25;5073360;28;20457;-75
2021/12/21 06:34:26;;;;;;;3.97;3.50;;;;;;;-3.74;100.00;101705.59;5073224;28;20575;-75
2021/12/21 06:36:52;;;;;;;6.67;5.20;;;;;;;-3.62;100.00;101706.75;5072938;28;20171;-75
2021/12/21 06:39:18;;;;;;;8.07;4.40;;;;;;;-3.65;100.00;101715.13;5073373;28;20478;-75
2021/12/21 06:41:44;;;;;;;5.33;4.83;;;;;;;-3.67;100.00;101706.47;5072985;28;20219;-75
2021/12/21 06:44:12;;;;;;;6.60;4.90;;;;;;;-3.88;100.00;101695.75;5072886;28;20175;-74
2021/12/21 06:51:05;;;;;;;3.97;3.57;;;;;;;-3.80;100.00;101698.31;5072488;28;20500;-73
2021/12/21 06:52:22;;;;;;;4.50;3.73;;;;;;;-3.73;100.00;101691.22;5072867;28;20450;-76
2021/12/21 06:54:47;;;;;;;4.33;3.93;;;;;;;-3.71;100.00;101705.19;5072453;28;20444;-75
2021/12/21 06:57:13;;;;;;;6.17;5.57;;;;;;;-3.51;100.00;101718.78;5072933;28;20527;-75
2021/12/21 06:59:38;;;;;;;3.70;3.40;;;;;;;-3.48;100.00;101715.72;5065990;28;20178;-75
2021/12/21 07:02:04;;;;;;;8.23;5.43;;;;;;;-3.49;100.00;101713.25;5066451;28;20198;-78
2021/12/21 07:04:30;;;;;;;4.43;3.73;;;;;;;-3.53;100.00;101709.31;5063212;28;20430;-78
2021/12/21 07:06:57;;;;;;;4.90;4.33;;;;;;;-3.60;100.00;101707.41;5068818;28;20210;-78
2021/12/21 07:09:31;;;;;;;3.90;3.50;;;;;;;-3.58;100.00;101717.06;5066648;28;20186;-77
2021/12/21 07:12:18;;;;;;;5.10;4.47;;;;;;;-3.51;100.00;101709.94;5072398;28;20404;-78
2021/12/21 07:20:18;;;;;;;4.27;3.63;;;;;;;-3.66;100.00;101707.31;5036194;28;20480;-74
2021/12/21 07:22:44;;;;;;;6.87;5.23;;;;;;;-3.72;100.00;101705.41;5052484;28;20410;-75
2021/12/21 07:25:10;;;;;;;7.27;5.47;;;;;;;-3.95;100.00;101703.66;5060070;28;20236;-75
2021/12/21 07:27:35;;;;;;;5.87;5.30;;;;;;;-4.16;100.00;101700.91;5071948;28;20175;-75
2021/12/21 07:30:01;;;;;;;5.87;5.27;;;;;;;-4.59;100.00;101692.66;5072046;28;20170;-75
2021/12/21 07:32:26;;;;;;;8.57;5.07;;;;;;;-4.37;100.00;101698.94;5072279;28;20181;-75
2021/12/21 07:34:51;;;;;;;6.50;4.80;;;;;;;-4.22;100.00;101705.13;5071767;28;20689;-76
2021/12/21 07:37:17;;;;;;;7.20;4.37;;;;;;;-4.28;100.00;101705.84;5071825;28;20206;-75
2021/12/21 07:39:42;;;;;;;7.83;6.07;;;;;;;-4.45;100.00;101706.22;5071920;28;20174;-75
2021/12/21 07:42:08;;;;;;;5.57;5.00;;;;;;;-4.51;100.00;101705.06;5071853;28;20174;-74
2021/12/21 07:44:33;;;;;;;8.13;5.13;;;;;;;-4.22;100.00;101713.13;5071693;28;20174;-75
2021/12/21 07:46:59;;;;;;;6.03;4.17;;;;;;;-4.03;100.00;101719.78;5070342;28;20179;-74
2021/12/21 07:49:24;;;;;;;9.73;6.47;;;;;;;-4.36;100.00;101711.25;5071551;28;20532;-74
2021/12/21 07:51:50;;;;;;;8.20;5.07;;;;;;;-4.33;100.00;101723.44;5071474;28;20228;-75
2021/12/21 07:54:17;;;;;;;6.67;4.60;;;;;;;-3.94;100.00;101731.16;5071676;28;20183;-84
2021/12/21 07:56:43;;;;;;;6.00;5.20;;;;;;;-3.72;100.00;101734.75;5071174;28;20305;-82
2021/12/21 07:59:11;;;;;;;9.00;7.83;;;;;;;-3.54;100.00;101737.88;5070928;28;20428;-76
2021/12/21 08:01:37;;;;;;;8.20;7.40;;;;;;;-3.48;100.00;101747.78;5067879;28;20908;-75
2021/12/21 08:04:03;;;;;;;7.37;6.33;;;;;;;-3.43;100.00;101747.25;5064417;28;20519;-75
2021/12/21 08:06:31;;;;;;;7.17;6.37;;;;;;;-3.35;100.00;101749.78;5071155;28;20574;-75
2021/12/21 08:09:15;;;;;;;11.70;7.13;;;;;;;-3.32;100.00;101749.44;5071234;28;20235;-75
2021/12/21 08:14:07;;;;;;;6.77;6.13;;;;;;;-3.19;100.00;101751.41;5071469;28;20927;-75
2021/12/21 08:16:33;;;;;;;7.73;6.50;;;;;;;-3.17;100.00;101760.09;5070732;28;20206;-75
2021/12/21 08:18:58;;;;;;;7.33;6.10;;;;;;;-3.19;100.00;101756.75;5071165;28;20196;-75
2021/12/21 08:21:25;;;;;;;13.07;6.93;;;;;;;-3.30;100.00;101755.44;5071470;28;20413;-75
2021/12/21 08:23:51;;;;;;;6.70;6.00;;;;;;;-3.43;100.00;101741.91;5071367;28;20258;-77
2021/12/21 08:26:16;;;;;;;5.83;5.23;;;;;;;-3.51;100.00;101755.34;5069491;28;20566;-77
2021/12/21 08:28:42;;;;;;;6.37;5.70;;;;;;;-3.63;100.00;101746.97;5069650;28;20228;-77
2021/12/21 08:31:12;;;;;;;15.97;5.27;;;;;;;-3.74;100.00;101742.97;5070900;28;20227;-77
2021/12/21 08:33:39;;;;;;;6.03;4.50;;;;;;;-3.82;100.00;101740.38;5070929;28;20177;-81
2021/12/21 08:36:06;;;;;;;8.77;5.70;;;;;;;-3.80;100.00;101742.84;5070621;28;20479;-81
2021/12/21 08:38:33;;;;;;;5.63;5.00;;;;;;;-3.85;100.00;101746.09;5069507;28;20836;-78
2021/12/21 08:41:00;;;;;;;10.00;6.50;;;;;;;-3.99;100.00;101736.25;5070916;28;20466;-77
2021/12/21 08:43:28;;;;;;;4.67;4.37;;;;;;;-4.06;100.00;101727.28;5071482;28;20591;-78
2021/12/21 08:45:55;;;;;;;7.93;3.63;;;;;;;-4.17;100.00;101738.44;5070641;28;20783;-79
2021/12/21 08:48:22;;;;;;;5.80;4.87;;;;;;;-4.18;100.00;101731.44;5070600;28;20409;-79
2021/12/21 08:50:49;;;;;;;5.67;4.90;;;;;;;-4.08;100.00;101740.81;5070639;28;20458;-78
2021/12/21 08:53:15;;;;;;;15.00;6.07;;;;;;;-4.07;100.00;101741.66;5070515;28;20459;-76
2021/12/21 08:55:42;;;;;;;6.00;5.50;;;;;;;-4.06;100.00;101741.47;5070456;28;20460;-79
2021/12/21 08:58:08;;;;;;;6.67;6.07;;;;;;;-3.99;100.00;101744.25;5069283;28;20809;-76
2021/12/21 09:00:33;;;;;;;4.83;4.43;;;;;;;-3.94;100.00;101747.19;5070424;28;20413;-76
2021/12/21 09:02:59;;;;;;;7.17;4.80;;;;;;;-3.87;100.00;101757.97;5070530;28;20174;-76
2021/12/21 09:05:28;;;;;;;6.57;5.73;;;;;;;-3.81;100.00;101752.72;5070201;28;20248;-78
2021/12/21 09:07:54;;;;;;;10.60;6.83;;;;;;;-3.69;100.00;101753.06;5069260;28;20639;-79
2021/12/21 09:10:22;;;;;;;5.70;5.07;;;;;;;-3.64;100.00;101759.50;5071018;28;20570;-79
2021/12/21 09:12:48;;;;;;;6.70;6.00;;;;;;;-3.57;100.00;101748.94;5074593;28;20417;-79
2021/12/21 09:15:14;;;;;;;4.53;3.77;;;;;;;-3.49;100.00;101754.16;5073829;28;20692;-79
2021/12/21 09:17:41;;;;;;;5.23;4.70;;;;;;;-3.41;100.00;101763.91;5074319;28;20201;-79
2021/12/21 09:20:08;;;;;;;11.00;6.87;;;;;;;-3.32;100.00;101762.81;5074430;28;20427;-77
2021/12/21 09:22:34;;;;;;;33.97;19.53;;;;;;;-3.23;100.00;101766.19;5074275;28;20478;-79
2021/12/21 09:24:59;;;;;;;12.30;8.17;;;;;;;-3.18;100.00;101756.59;5074336;28;20425;-79
2021/12/21 09:27:26;;;;;;;6.87;6.00;;;;;;;-3.15;100.00;101756.22;5074097;28;20190;-79
2021/12/21 09:29:51;;;;;;;10.67;7.73;;;;;;;-3.15;100.00;101758.06;5065914;28;20199;-78
2021/12/21 09:32:18;;;;;;;11.90;7.23;;;;;;;-3.06;100.00;101763.09;5072231;28;20428;-77
2021/12/21 09:34:44;;;;;;;11.97;9.47;;;;;;;-3.00;100.00;101764.19;5073972;28;20198;-79
2021/12/21 09:37:16;;;;;;;24.10;12.97;;;;;;;-2.97;100.00;101774.50;5074248;28;20412;-78
2021/12/21 09:39:43;;;;;;;8.80;7.80;;;;;;;-3.02;100.00;101764.38;5074131;28;20428;-75
2021/12/21 09:42:13;;;;;;;7.77;6.97;;;;;;;-2.98;100.00;101769.34;5074251;28;20834;-77
2021/12/21 09:44:39;;;;;;;13.27;7.53;;;;;;;-2.87;100.00;101771.53;5074036;28;20413;-77
2021/12/21 09:47:06;;;;;;;10.27;7.43;;;;;;;-2.74;100.00;101771.66;5073732;28;20419;-78
2021/12/21 09:49:32;;;;;;;11.90;8.57;;;;;;;-2.54;100.00;101780.69;5073978;28;20618;-78
2021/12/21 09:51:57;;;;;;;7.33;6.60;;;;;;;-2.41;100.00;101780.81;5073893;28;20420;-75
2021/12/21 09:54:25;;;;;;;15.30;9.43;;;;;;;-2.71;100.00;101771.28;5073767;28;20174;-75
2021/12/21 09:56:50;;;;;;;10.47;7.57;;;;;;;-2.82;100.00;101788.63;5073421;28;20178;-75
2021/12/21 09:59:16;;;;;;;10.47;6.77;;;;;;;-2.57;100.00;101786.44;5073775;28;20417;-78
2021/12/21 10:01:41;;;;;;;8.43;7.30;;;;;;;-2.48;100.00;101787.09;5073578;28;20178;-78
2021/12/21 10:04:06;;;;;;;6.83;6.00;;;;;;;-2.49;100.00;101786.28;5073533;28;20630;-78
2021/12/21 10:06:43;;;;;;;7.70;6.33;;;;;;;-2.41;100.00;101790.69;5071356;28;20221;-75
2021/12/21 10:09:09;;;;;;;8.90;6.17;;;;;;;-2.42;100.00;101789.03;5073472;28;20285;-78
2021/12/21 10:11:42;;;;;;;6.73;6.10;;;;;;;-2.48;100.00;101790.59;5073103;28;20853;-77
2021/12/21 10:14:08;;;;;;;6.00;5.50;;;;;;;-2.64;100.00;101779.34;5072147;28;20174;-77
2021/12/21 10:16:34;;;;;;;5.03;4.53;;;;;;;-2.74;100.00;101777.84;5072880;28;20467;-78
2021/12/21 10:19:00;;;;;;;6.13;4.63;;;;;;;-2.75;100.00;101781.53;5073362;28;20546;-78
2021/12/21 10:21:26;;;;;;;5.50;5.13;;;;;;;-2.71;100.00;101777.44;5072829;28;20584;-78
2021/12/21 10:23:54;;;;;;;6.00;5.50;;;;;;;-2.67;100.00;101774.38;5073203;28;20424;-78
2021/12/21 10:26:22;;;;;;;5.83;4.93;;;;;;;-2.67;100.00;101782.41;5073146;28;20179;-77
2021/12/21 10:28:50;;;;;;;6.90;6.20;;;;;;;-2.61;100.00;101789.66;5073052;28;20512;-78
2021/12/21 10:31:32;;;;;;;15.13;6.13;;;;;;;-2.51;100.00;101780.28;5073025;28;20760;-78
2021/12/21 10:33:59;;;;;;;8.17;7.33;;;;;;;-2.36;100.00;101776.72;5073080;28;20470;-77
2021/12/21 10:36:26;;;;;;;6.77;6.17;;;;;;;-2.24;100.00;101769.81;5072727;28;20475;-75
2021/12/21 10:38:56;;;;;;;9.33;8.40;;;;;;;-2.49;100.00;101761.38;5073099;28;20524;-76
2021/12/21 10:41:28;;;;;;;11.40;9.50;;;;;;;-2.68;100.00;101751.34;5072946;28;20897;-76
2021/12/21 10:44:03;;;;;;;16.33;10.20;;;;;;;-2.74;100.00;101747.59;5073124;28;20509;-76
2021/12/21 10:46:31;;;;;;;10.50;9.47;;;;;;;-2.76;100.00;101749.59;5072534;28;20474;-76
2021/12/21 10:49:17;;;;;;;15.80;9.83;;;;;;;-2.81;100.00;101752.84;5072813;28;20429;-75
2021/12/21 10:52:07;;;;;;;11.40;10.27;;;;;;;-2.79;100.00;101742.78;5072887;28;20433;-75
2021/12/21 10:54:41;;;;;;;12.23;10.73;;;;;;;-2.82;100.00;101739.69;5072527;28;20429;-75
2021/12/21 10:57:14;;;;;;;16.87;11.77;;;;;;;-2.97;100.00;101746.94;5072600;28;20416;-75
2021/12/21 10:59:42;;;;;;;16.33;12.03;;;;;;;-2.95;100.00;101742.22;5072531;28;20523;-75
2021/12/21 11:02:12;;;;;;;12.90;8.90;;;;;;;-2.78;100.00;101744.44;5072668;28;20574;-75
2021/12/21 11:04:43;;;;;;;12.60;11.40;;;;;;;-2.66;100.00;101744.75;5072540;28;20778;-75
2021/12/21 11:10:26;;;;;;;12.40;10.17;;;;;;;-2.73;100.00;101736.69;5072556;28;20433;-75
2021/12/21 11:12:59;;;;;;;18.63;10.73;;;;;;;-2.81;100.00;101731.47;5075902;28;20473;-75
2021/12/21 11:15:29;;;;;;;10.80;9.37;;;;;;;-2.60;100.00;101733.31;5081314;28;21068;-73
2021/12/21 11:18:01;;;;;;;13.03;11.43;;;;;;;-2.46;100.00;101740.44;5073536;28;20417;-73
2021/12/21 11:20:27;;;;;;;13.63;11.03;;;;;;;-2.59;100.00;101731.47;5072748;28;20412;-74
2021/12/21 11:22:53;;;;;;;18.90;11.10;;;;;;;-2.59;100.00;101729.63;5072348;28;20420;-75
2021/12/21 11:25:20;;;;;;;12.83;11.30;;;;;;;-2.48;100.00;101726.41;5072675;28;20257;-78
2021/12/21 11:27:46;;;;;;;17.77;12.30;;;;;;;-2.32;100.00;101727.13;5072217;28;20499;-75
2021/12/21 11:30:14;;;;;;;19.37;13.23;;;;;;;-2.07;100.00;101733.69;5072100;28;20985;-75
2021/12/21 11:32:44;;;;;;;14.30;10.57;;;;;;;-2.31;100.00;101728.81;5071515;28;20417;-75
2021/12/21 11:37:42;;;;;;;15.13;11.03;;;;;;;-2.05;100.00;101742.34;5071473;28;20436;-75
2021/12/21 11:40:10;;;;;;;15.60;12.43;;;;;;;-2.21;100.00;101731.94;5070842;28;20424;-75
2021/12/21 11:43:05;;;;;;;16.23;12.73;;;;;;;-2.48;100.00;101721.03;5070514;28;20417;-75
2021/12/21 11:45:37;;;;;;;10.90;9.83;;;;;;;-2.18;100.00;101731.56;5066305;28;20432;-75
2021/12/21 11:48:08;;;;;;;17.77;13.17;;;;;;;-2.28;100.00;101718.53;5067174;28;20492;-77
2021/12/21 11:50:34;;;;;;;14.67;12.93;;;;;;;-2.25;100.00;101720.00;5070283;28;20417;-78
2021/12/21 11:53:06;;;;;;;17.37;14.27;;;;;;;-2.12;100.00;101726.25;5070750;28;20422;-75
2021/12/21 11:55:36;;;;;;;18.07;12.17;;;;;;;-2.18;100.00;101721.66;5070329;28;20962;-75
2021/12/21 11:58:16;;;;;;;22.00;12.40;;;;;;;-2.11;100.00;101727.91;5068017;28;20501;-75
2021/12/21 12:00:56;;;;;;;15.67;12.03;;;;;;;-2.06;100.00;101727.31;5068089;28;20562;-75
2021/12/21 12:03:25;;;;;;;15.73;12.30;;;;;;;-1.85;100.00;101732.59;5068215;28;20504;-75
2021/12/21 12:06:03;;;;;;;13.53;11.93;;;;;;;-1.85;100.00;101729.94;5068756;28;21022;-74
2021/12/21 12:08:46;;;;;;;19.90;14.07;;;;;;;-1.97;100.00;101723.47;5067656;28;20420;-75
2021/12/21 12:11:25;;;;;;;16.23;12.73;;;;;;;-1.93;100.00;101729.25;5069259;28;21040;-74
2021/12/21 12:14:03;;;;;;;12.37;11.10;;;;;;;-1.76;100.00;101727.06;5069258;28;20455;-75
2021/12/21 12:16:44;;;;;;;23.50;13.43;;;;;;;-1.76;100.00;101719.84;5070878;28;20559;-74
2021/12/21 12:19:22;;;;;;;18.33;12.37;;;;;;;-1.90;100.00;101715.47;5071102;28;20405;-75
2021/12/21 12:22:02;;;;;;;14.73;11.73;;;;;;;-1.90;100.00;101710.94;5071165;28;20440;-77
2021/12/21 12:24:37;;;;;;;15.80;13.00;;;;;;;-1.98;100.00;101703.06;5070898;28;20947;-78
2021/12/21 12:27:16;;;;;;;20.43;10.50;;;;;;;-1.99;100.00;101709.44;5070849;28;20436;-75